TAF KOXR
KOXR 270522Z 2706/2806 VRB03KT P6SM SKC FM271000 07005KT P6SM SKC FM272200 23008KT P6SM SKC FM280300 VRB03KT P6SM SKC=
METAR KOXR
WC KOXR
WS KOXR
WV KOXR